Jackman, Maine
Current Conditions -  °F | °C
As of 7:00 PM on Friday 19 Dec 2014 (Local Time) from CYSC Reporting Station
Clear Clear  
Wind Chill: 12°   Ceiling: Unl
Heat Index: 12°   Visibility: 9mi
Dew Point: 12°   Wind: 2mph
Humidity: 100%   Direction: 250°WSW
Pressure: 30.16"   Gusts: NA
Location:  45.62°N, 70.25°W
Report Text: CYSC 200000Z AUTO 25002KT 9SM CLR M11/M11 A3016 RMK SLP228
Loading
Personal Weather Stations






























Interactive Weather Map New forecast layout! Learn more

10-Day Weather Forecast

Advertisements
Track Severe Weather on mobile